Vinton, Iowa
Current Conditions -  °F | °C
As of 2:55 AM on Sunday 21 Dec 2014 (Local Time) from KVTI Reporting Station
Moderate Fog Moderate Fog  
Wind Chill: 27°   Ceiling: 100
Heat Index: 35°   Visibility: 0.5mi
Dew Point: 34°   Wind: 12mph
Humidity: 96%   Direction: 170°S
Pressure: 30.09"   Gusts: NA
Location:  42.16°N, 92.03°W
Report Text: KVTI 210855Z AUTO 17010KT 1/2SM FG OVC001 02/01 A3009 RMK AO2 T00170011
Loading
Personal Weather Stations






























Interactive Weather Map New forecast layout! Learn more

10-Day Weather Forecast

Advertisements
Track Severe Weather on mobile